Time;durP1;ratioP1;P1;durP2;ratioP2;P2;SDS_P1;SDS_P2;PMS_P1;PMS_P2;Temp;Humidity;BMP_temperature;BMP_pressure;BME280_temperature;BME280_humidity;BME280_pressure;Samples;Min_cycle;Max_cycle;Signal;HPM_P1;HPM_P2
2021/12/22 00:02:03;;;;;;;43.58;18.58;;;-2.30;93.70;;;;;;5027882;28;20285;-71
2021/12/22 00:04:31;;;;;;;40.20;18.57;;;-2.30;93.70;;;;;;5032599;28;20217;-70
2021/12/22 00:06:57;;;;;;;41.33;19.08;;;-2.30;93.70;;;;;;5013221;28;20636;-71
2021/12/22 00:09:23;;;;;;;37.80;18.83;;;-2.40;93.60;;;;;;5030766;28;20193;-72
2021/12/22 00:11:49;;;;;;;38.63;16.30;;;-2.40;93.70;;;;;;5031750;28;20463;-70
2021/12/22 00:14:16;;;;;;;32.90;17.53;;;-2.40;93.80;;;;;;5033541;28;21238;-72
2021/12/22 00:16:42;;;;;;;33.05;16.60;;;-2.40;93.80;;;;;;5031529;28;20435;-71
2021/12/22 00:19:08;;;;;;;40.67;19.10;;;-2.50;93.80;;;;;;5033348;28;20241;-71
2021/12/22 00:21:34;;;;;;;36.60;18.90;;;-2.50;93.80;;;;;;5031772;28;20448;-73
2021/12/22 00:23:59;;;;;;;39.00;17.00;;;-2.60;93.80;;;;;;5024430;28;20550;-72
2021/12/22 00:26:25;;;;;;;33.20;17.90;;;-2.60;94.00;;;;;;5032657;28;20432;-71
2021/12/22 00:28:51;;;;;;;34.77;17.23;;;-2.60;94.20;;;;;;5033835;28;20235;-70
2021/12/22 00:31:19;;;;;;;38.33;18.10;;;-2.70;94.30;;;;;;5034728;28;20213;-72
2021/12/22 00:33:50;;;;;;;38.28;19.92;;;-2.70;94.40;;;;;;5034556;28;20177;-71
2021/12/22 00:36:19;;;;;;;40.72;17.80;;;-2.60;94.30;;;;;;5035025;28;20216;-70
2021/12/22 00:38:46;;;;;;;36.80;17.88;;;-2.70;94.20;;;;;;5028934;28;20243;-71
2021/12/22 00:41:12;;;;;;;38.40;18.60;;;-2.70;94.10;;;;;;5032964;28;20224;-70
2021/12/22 00:43:38;;;;;;;33.42;16.38;;;-2.80;94.00;;;;;;5012672;28;20189;-72
2021/12/22 00:46:04;;;;;;;33.33;16.02;;;-2.80;94.00;;;;;;5030686;28;20575;-70
2021/12/22 00:48:31;;;;;;;37.90;17.52;;;-2.90;94.00;;;;;;5030688;28;20208;-70
2021/12/22 00:50:57;;;;;;;38.10;17.08;;;-2.80;94.00;;;;;;5030560;28;20581;-70
2021/12/22 00:53:23;;;;;;;34.80;17.80;;;-2.80;93.90;;;;;;5030024;28;20302;-70
2021/12/22 00:55:50;;;;;;;40.90;18.23;;;-2.90;93.90;;;;;;5012448;28;20643;-70
2021/12/22 00:58:16;;;;;;;37.58;17.75;;;-2.90;94.00;;;;;;5030354;28;20416;-70
2021/12/22 01:00:46;;;;;;;39.08;19.20;;;-2.90;94.10;;;;;;5022343;28;20220;-71
2021/12/22 01:03:12;;;;;;;40.88;20.00;;;-2.90;94.20;;;;;;5029683;28;20205;-71
2021/12/22 01:05:38;;;;;;;32.93;16.17;;;-2.90;94.20;;;;;;5030256;28;20184;-70
2021/12/22 01:08:04;;;;;;;32.63;16.97;;;-2.90;94.20;;;;;;5030159;28;20419;-71
2021/12/22 01:10:31;;;;;;;38.07;17.43;;;-2.90;94.30;;;;;;5030525;28;20466;-71
2021/12/22 01:13:00;;;;;;;34.53;17.42;;;-3.00;94.20;;;;;;5031827;28;20467;-71
2021/12/22 01:15:26;;;;;;;39.30;18.70;;;-3.00;94.30;;;;;;5013021;28;20201;-69
2021/12/22 01:18:14;;;;;;;37.50;19.05;;;-3.00;94.40;;;;;;5030477;28;20189;-71
2021/12/22 01:23:32;;;;;;;36.67;18.92;;;-3.00;94.40;;;;;;5026407;28;20225;-71
2021/12/22 01:25:58;;;;;;;42.10;19.67;;;-3.00;94.50;;;;;;5031652;28;20185;-71
2021/12/22 01:28:26;;;;;;;35.43;18.13;;;-3.10;94.60;;;;;;5032850;28;20276;-70
2021/12/22 01:30:52;;;;;;;37.85;18.50;;;-3.10;94.70;;;;;;5031783;28;20263;-69
2021/12/22 01:33:19;;;;;;;36.42;19.02;;;-3.10;94.80;;;;;;5031841;28;20272;-71
2021/12/22 01:35:46;;;;;;;41.53;18.05;;;-3.10;94.70;;;;;;5031349;28;20301;-70
2021/12/22 01:38:12;;;;;;;34.33;18.67;;;-3.00;94.80;;;;;;5026827;28;20306;-70
2021/12/22 01:40:44;;;;;;;35.87;18.07;;;-3.00;94.80;;;;;;5030477;28;20201;-70
2021/12/22 01:43:13;;;;;;;44.38;18.90;;;-3.00;94.60;;;;;;5013147;28;20793;-70
2021/12/22 01:46:09;;;;;;;54.63;17.92;;;-3.10;94.50;;;;;;5030302;28;20578;-72
2021/12/22 01:49:14;;;;;;;34.05;17.65;;;-3.10;94.50;;;;;;5029641;28;20234;-71
2021/12/22 01:52:05;;;;;;;34.25;16.85;;;-3.10;94.40;;;;;;5029897;28;20580;-71
2021/12/22 01:55:03;;;;;;;36.58;16.73;;;-3.20;94.30;;;;;;5029333;28;20181;-69
2021/12/22 01:57:31;;;;;;;32.90;16.45;;;-3.20;94.30;;;;;;5026492;28;20703;-70
2021/12/22 01:59:57;;;;;;;41.22;18.55;;;-3.20;94.00;;;;;;5031235;28;20224;-71
2021/12/22 02:02:22;;;;;;;35.80;17.10;;;-3.20;94.00;;;;;;5014189;28;20201;-69
2021/12/22 02:04:48;;;;;;;37.53;18.63;;;-3.20;94.10;;;;;;5030673;28;20489;-71
2021/12/22 02:07:14;;;;;;;33.73;16.57;;;-3.20;94.10;;;;;;5030447;28;20192;-70
2021/12/22 02:12:16;;;;;;;36.65;18.70;;;-3.00;94.40;;;;;;5030297;28;20204;-70
2021/12/22 02:14:43;;;;;;;36.03;18.35;;;-2.90;94.60;;;;;;5013182;28;20212;-70
2021/12/22 02:17:11;;;;;;;37.13;18.52;;;-2.80;94.70;;;;;;5029785;28;20660;-70
2021/12/22 02:19:42;;;;;;;38.90;19.75;;;-2.70;94.70;;;;;;5029589;28;20185;-70
2021/12/22 02:22:11;;;;;;;40.00;19.67;;;-2.70;94.70;;;;;;5012401;28;20239;-70
2021/12/22 02:24:37;;;;;;;37.92;18.52;;;-2.60;94.70;;;;;;5017410;28;20235;-71
2021/12/22 02:27:14;;;;;;;43.53;19.50;;;-2.60;94.70;;;;;;5040452;28;20181;-70
2021/12/22 02:29:46;;;;;;;34.40;17.88;;;-2.50;94.70;;;;;;5020457;28;20192;-70
2021/12/22 02:32:26;;;;;;;31.30;17.08;;;-2.50;94.50;;;;;;5040754;28;20304;-70
2021/12/22 02:34:53;;;;;;;32.85;17.65;;;-2.50;94.10;;;;;;5032969;28;20216;-70
2021/12/22 02:37:24;;;;;;;35.75;16.60;;;-2.60;93.60;;;;;;5032965;28;20181;-71
2021/12/22 02:40:08;;;;;;;28.73;15.93;;;-2.70;93.30;;;;;;5033124;28;20694;-71
2021/12/22 02:42:35;;;;;;;34.20;16.42;;;-2.70;93.20;;;;;;5024224;28;20251;-70
2021/12/22 02:45:21;;;;;;;32.85;16.02;;;-2.80;93.20;;;;;;5038593;28;20173;-69
2021/12/22 02:47:47;;;;;;;44.03;17.27;;;-2.80;93.10;;;;;;5022692;28;20188;-69
2021/12/22 02:50:15;;;;;;;41.10;17.77;;;-2.80;93.10;;;;;;5036041;28;20711;-70
2021/12/22 02:55:15;;;;;;;43.97;19.63;;;-2.90;93.10;;;;;;5029895;28;20648;-69
2021/12/22 02:57:46;;;;;;;41.70;19.70;;;-3.00;93.10;;;;;;5019847;28;20328;-70
2021/12/22 03:00:35;;;;;;;41.90;19.25;;;-3.00;93.30;;;;;;5030663;28;20596;-70
2021/12/22 03:05:28;;;;;;;38.20;20.70;;;-3.10;93.70;;;;;;5033948;28;20185;-71
2021/12/22 03:07:55;;;;;;;39.60;18.65;;;-3.10;93.80;;;;;;5028614;28;20669;-70
2021/12/22 03:10:21;;;;;;;35.75;18.75;;;-3.20;94.00;;;;;;5033774;28;20209;-71
2021/12/22 03:12:52;;;;;;;39.33;18.80;;;-3.20;94.10;;;;;;5035647;28;20208;-68
2021/12/22 03:15:19;;;;;;;45.00;20.98;;;-3.20;94.30;;;;;;5033513;28;20178;-70
2021/12/22 03:17:46;;;;;;;43.67;21.55;;;-3.30;94.40;;;;;;5029789;28;20188;-69
2021/12/22 03:20:14;;;;;;;46.22;21.50;;;-3.30;94.60;;;;;;5033815;28;20223;-70
2021/12/22 03:22:42;;;;;;;37.40;19.55;;;-3.30;94.60;;;;;;5033967;28;20273;-71
2021/12/22 03:25:14;;;;;;;37.95;18.30;;;-3.30;94.70;;;;;;5033715;28;20303;-71
2021/12/22 03:27:49;;;;;;;37.80;19.10;;;-3.30;94.70;;;;;;5034462;28;20561;-71
2021/12/22 03:30:17;;;;;;;35.75;17.48;;;-3.40;94.70;;;;;;5034459;28;20289;-69
2021/12/22 03:32:43;;;;;;;43.03;19.33;;;-3.50;94.70;;;;;;5032510;28;20216;-70
2021/12/22 03:35:17;;;;;;;51.10;19.47;;;-3.50;94.80;;;;;;5032583;28;20185;-71
2021/12/22 03:37:45;;;;;;;43.30;18.35;;;-3.40;94.80;;;;;;5032524;28;20485;-71
2021/12/22 03:40:11;;;;;;;42.75;19.88;;;-3.50;94.80;;;;;;5033984;28;20240;-70
2021/12/22 03:42:37;;;;;;;37.05;18.10;;;-3.40;94.90;;;;;;5015814;28;20181;-70
2021/12/22 03:45:03;;;;;;;38.30;18.53;;;-3.40;94.90;;;;;;5032821;28;20690;-70
2021/12/22 03:47:29;;;;;;;43.47;18.13;;;-3.40;94.90;;;;;;5033449;28;20511;-71
2021/12/22 03:49:55;;;;;;;35.93;18.93;;;-3.40;94.80;;;;;;5033171;28;20204;-71
2021/12/22 03:52:21;;;;;;;41.27;20.50;;;-3.40;94.70;;;;;;5033767;28;20204;-71
2021/12/22 03:54:46;;;;;;;33.20;18.03;;;-3.40;94.80;;;;;;5032797;28;20216;-70
2021/12/22 03:57:12;;;;;;;40.10;18.50;;;-3.40;94.70;;;;;;5014978;28;20272;-70
2021/12/22 03:59:38;;;;;;;42.17;19.70;;;-3.40;94.70;;;;;;5013923;28;20188;-70
2021/12/22 04:02:04;;;;;;;37.20;18.37;;;-3.40;94.60;;;;;;5013872;28;20327;-68
2021/12/22 04:04:30;;;;;;;42.97;18.60;;;-3.40;94.50;;;;;;5031637;28;20428;-70
2021/12/22 04:06:56;;;;;;;42.90;19.67;;;-3.40;94.50;;;;;;5014172;28;20200;-70
2021/12/22 04:09:27;;;;;;;41.60;18.70;;;-3.40;94.40;;;;;;5032658;28;20581;-70
2021/12/22 04:11:53;;;;;;;39.55;20.10;;;-3.40;94.50;;;;;;5031821;28;20205;-70
2021/12/22 04:14:19;;;;;;;42.88;19.15;;;-3.50;94.50;;;;;;5033648;28;20188;-70
2021/12/22 04:16:44;;;;;;;37.93;17.23;;;-3.50;94.40;;;;;;5028090;28;20178;-71
2021/12/22 04:19:10;;;;;;;42.00;18.53;;;-3.50;94.40;;;;;;5032175;28;20694;-72
2021/12/22 04:21:36;;;;;;;35.70;17.73;;;-3.50;94.30;;;;;;5014214;28;20213;-69
2021/12/22 04:24:02;;;;;;;39.47;17.90;;;-3.50;94.30;;;;;;5030569;28;20199;-72
2021/12/22 04:26:31;;;;;;;38.25;17.88;;;-3.50;94.30;;;;;;5022112;28;20185;-73
2021/12/22 04:28:57;;;;;;;41.85;19.30;;;-3.60;94.40;;;;;;5029972;28;20252;-69
2021/12/22 04:31:23;;;;;;;41.67;18.90;;;-3.70;94.40;;;;;;5020303;28;20244;-70
2021/12/22 04:33:49;;;;;;;45.80;20.00;;;-3.70;94.60;;;;;;5030330;28;20958;-69
2021/12/22 04:36:15;;;;;;;38.17;18.90;;;-3.70;94.70;;;;;;5031170;28;20279;-70
2021/12/22 04:38:40;;;;;;;41.73;18.43;;;-3.70;94.80;;;;;;5031133;28;20193;-70
2021/12/22 04:41:06;;;;;;;47.17;20.43;;;-3.80;94.90;;;;;;5028326;28;20215;-70
2021/12/22 04:43:32;;;;;;;46.20;21.20;;;-3.70;95.00;;;;;;5024893;28;20196;-70
2021/12/22 04:45:57;;;;;;;44.03;20.13;;;-3.70;95.10;;;;;;5027362;28;20184;-69
2021/12/22 04:48:23;;;;;;;39.67;18.67;;;-3.70;95.10;;;;;;5022460;28;20635;-70
2021/12/22 04:50:49;;;;;;;41.23;18.47;;;-3.60;95.10;;;;;;5031059;28;20239;-71
2021/12/22 04:53:21;;;;;;;38.92;18.40;;;-3.70;95.00;;;;;;5030323;28;20232;-70
2021/12/22 04:55:47;;;;;;;47.58;19.42;;;-3.70;95.00;;;;;;5030370;28;20664;-69
2021/12/22 04:58:13;;;;;;;38.63;17.17;;;-3.70;94.90;;;;;;5030722;28;20204;-71
2021/12/22 05:00:40;;;;;;;35.23;18.53;;;-3.70;94.90;;;;;;5030469;28;20233;-70
2021/12/22 05:03:06;;;;;;;39.65;18.52;;;-3.70;94.80;;;;;;5029121;28;20444;-72
2021/12/22 05:05:35;;;;;;;33.87;17.00;;;-3.70;94.80;;;;;;5027144;28;20205;-69
2021/12/22 05:08:01;;;;;;;40.53;16.40;;;-3.70;94.70;;;;;;5012896;28;20800;-72
2021/12/22 05:10:28;;;;;;;34.97;17.33;;;-3.70;94.60;;;;;;5030837;28;20209;-71
2021/12/22 05:12:54;;;;;;;36.20;18.58;;;-3.70;94.50;;;;;;5028480;28;20471;-68
2021/12/22 05:15:23;;;;;;;44.60;19.85;;;-3.80;94.40;;;;;;5012740;28;20559;-69
2021/12/22 05:20:16;;;;;;;42.10;19.27;;;-3.80;94.60;;;;;;5025487;28;20220;-71
2021/12/22 05:22:43;;;;;;;41.75;18.83;;;-3.80;94.70;;;;;;5012523;28;20193;-69
2021/12/22 05:25:10;;;;;;;39.45;18.30;;;-3.80;94.80;;;;;;5026494;28;20297;-70
2021/12/22 05:27:37;;;;;;;42.63;18.75;;;-3.80;94.80;;;;;;5028069;28;21009;-70
2021/12/22 05:30:05;;;;;;;40.17;18.40;;;-3.80;94.80;;;;;;5030449;28;20213;-69
2021/12/22 05:32:32;;;;;;;46.40;17.73;;;-3.80;94.90;;;;;;5026516;28;20235;-72
2021/12/22 05:35:03;;;;;;;39.95;19.35;;;-3.80;94.90;;;;;;5030491;28;20234;-72
2021/12/22 05:37:29;;;;;;;43.03;17.75;;;-3.70;94.80;;;;;;5028613;28;20192;-71
2021/12/22 05:39:58;;;;;;;37.80;18.83;;;-3.70;94.80;;;;;;5022657;28;20181;-71
2021/12/22 05:42:25;;;;;;;44.75;19.38;;;-3.70;94.70;;;;;;5030100;28;20223;-71
2021/12/22 05:44:51;;;;;;;43.70;18.13;;;-3.80;94.60;;;;;;5012036;28;20185;-71
2021/12/22 05:47:17;;;;;;;48.30;19.97;;;-3.80;94.60;;;;;;5030500;28;20762;-69
2021/12/22 05:49:43;;;;;;;44.97;19.37;;;-3.80;94.50;;;;;;5030249;28;20452;-71
2021/12/22 05:52:10;;;;;;;45.38;18.63;;;-3.80;94.50;;;;;;5024836;28;20461;-72
2021/12/22 05:54:35;;;;;;;45.25;19.45;;;-3.80;94.50;;;;;;5012419;28;20192;-72
2021/12/22 05:57:02;;;;;;;46.13;19.60;;;-3.80;94.40;;;;;;5030774;28;20565;-70
2021/12/22 05:59:27;;;;;;;40.38;18.92;;;-3.90;94.40;;;;;;5033950;28;20181;-69
2021/12/22 06:01:53;;;;;;;43.93;18.80;;;-3.90;94.40;;;;;;5033835;28;20234;-70
2021/12/22 06:04:19;;;;;;;42.17;20.50;;;-3.80;94.40;;;;;;5030904;28;20211;-70
2021/12/22 06:06:44;;;;;;;43.50;20.60;;;-3.90;94.40;;;;;;5027093;28;20182;-71
2021/12/22 06:09:10;;;;;;;41.00;18.70;;;-3.90;94.40;;;;;;5032660;28;20193;-69
2021/12/22 06:11:36;;;;;;;49.40;20.80;;;-3.90;94.40;;;;;;5037737;28;20209;-69
2021/12/22 06:14:02;;;;;;;42.07;17.50;;;-3.90;94.50;;;;;;5039562;28;20196;-69
2021/12/22 06:16:30;;;;;;;42.70;19.20;;;-3.90;94.50;;;;;;5017184;28;20195;-71
2021/12/22 06:18:58;;;;;;;42.75;18.40;;;-3.90;94.60;;;;;;5027518;28;20948;-70
2021/12/22 06:21:24;;;;;;;38.08;18.05;;;-3.90;94.60;;;;;;5034996;28;20212;-68
2021/12/22 06:23:50;;;;;;;44.53;20.00;;;-3.90;94.60;;;;;;5031121;28;20197;-71
2021/12/22 06:26:16;;;;;;;37.77;17.80;;;-3.90;94.50;;;;;;5032452;28;20428;-69
2021/12/22 06:28:42;;;;;;;46.85;19.00;;;-4.00;94.60;;;;;;5033340;28;21039;-71
2021/12/22 06:31:08;;;;;;;45.00;20.80;;;-4.00;94.60;;;;;;5034021;28;20240;-70
2021/12/22 06:33:34;;;;;;;46.63;19.38;;;-4.00;94.60;;;;;;5030692;28;20184;-72
2021/12/22 06:35:59;;;;;;;48.83;17.80;;;-4.00;94.70;;;;;;5033486;28;20180;-71
2021/12/22 06:38:26;;;;;;;39.37;18.60;;;-4.00;94.90;;;;;;5033704;28;20422;-70
2021/12/22 06:40:51;;;;;;;43.60;19.08;;;-4.00;94.90;;;;;;5033222;28;20197;-70
2021/12/22 06:43:17;;;;;;;46.07;20.03;;;-4.00;94.90;;;;;;5032995;28;20189;-71
2021/12/22 06:45:43;;;;;;;43.38;19.17;;;-3.90;94.80;;;;;;5033050;28;20261;-70
2021/12/22 06:48:09;;;;;;;43.37;19.70;;;-3.90;94.80;;;;;;5032845;28;20749;-71
2021/12/22 06:50:35;;;;;;;46.43;19.70;;;-3.90;94.70;;;;;;5033032;28;20443;-70
2021/12/22 06:53:01;;;;;;;45.07;19.33;;;-3.90;94.60;;;;;;5014651;28;20209;-69
2021/12/22 06:55:26;;;;;;;46.63;20.10;;;-3.90;94.60;;;;;;5032969;28;20689;-70
2021/12/22 06:57:52;;;;;;;43.30;19.70;;;-3.90;94.50;;;;;;5032822;28;20185;-70
2021/12/22 07:00:18;;;;;;;42.67;20.47;;;-3.90;94.50;;;;;;5033111;28;20497;-69
2021/12/22 07:02:44;;;;;;;51.27;20.00;;;-4.00;94.40;;;;;;5014906;28;20455;-70
2021/12/22 07:05:12;;;;;;;45.33;19.80;;;-4.00;94.40;;;;;;5032756;28;20497;-71
2021/12/22 07:07:38;;;;;;;38.45;19.23;;;-4.00;94.40;;;;;;5032663;28;20251;-71
2021/12/22 07:10:07;;;;;;;49.72;20.63;;;-3.90;94.50;;;;;;5013615;28;20201;-70
2021/12/22 07:12:39;;;;;;;43.67;19.45;;;-3.90;94.60;;;;;;5032415;28;20779;-70
2021/12/22 07:15:06;;;;;;;54.22;21.33;;;-3.80;94.70;;;;;;5025657;28;20613;-70
2021/12/22 07:17:32;;;;;;;52.53;22.02;;;-3.70;94.70;;;;;;5032548;28;20659;-71
2021/12/22 07:19:57;;;;;;;51.90;22.37;;;-3.70;94.40;;;;;;5032595;28;20181;-71
2021/12/22 07:22:23;;;;;;;49.20;20.27;;;-3.70;94.20;;;;;;5032514;28;20424;-70
2021/12/22 07:24:49;;;;;;;46.03;21.50;;;-3.60;94.00;;;;;;5032593;28;20178;-71
2021/12/22 07:27:14;;;;;;;40.07;18.10;;;-3.70;93.90;;;;;;5032523;28;20481;-71
2021/12/22 07:29:41;;;;;;;40.03;19.50;;;-3.70;93.80;;;;;;5032810;28;20216;-71
2021/12/22 07:32:07;;;;;;;45.28;20.67;;;-3.70;93.90;;;;;;5032787;28;20201;-71
2021/12/22 07:34:41;;;;;;;44.95;18.90;;;-3.70;93.90;;;;;;5024358;28;20208;-70
2021/12/22 07:37:38;;;;;;;39.40;18.10;;;-3.70;93.80;;;;;;5033431;28;20197;-70
2021/12/22 07:40:10;;;;;;;42.95;19.38;;;-3.70;93.80;;;;;;5023163;28;20209;-69
2021/12/22 07:42:35;;;;;;;41.67;18.58;;;-3.70;93.60;;;;;;5033891;28;21036;-69
2021/12/22 07:45:02;;;;;;;38.43;19.43;;;-3.70;93.50;;;;;;5034497;28;20197;-70
2021/12/22 07:47:28;;;;;;;50.45;21.33;;;-3.70;93.40;;;;;;5033991;28;21045;-72
2021/12/22 07:49:54;;;;;;;43.93;20.60;;;-3.70;93.30;;;;;;5032475;28;20218;-71
2021/12/22 07:52:20;;;;;;;47.10;22.20;;;-3.60;93.30;;;;;;5034543;28;20468;-71
2021/12/22 07:54:45;;;;;;;38.80;19.17;;;-3.70;93.10;;;;;;5033871;28;20208;-71
2021/12/22 07:57:11;;;;;;;53.50;21.20;;;-3.70;93.30;;;;;;5032830;28;20189;-70
2021/12/22 07:59:37;;;;;;;42.23;18.60;;;-3.60;93.30;;;;;;5032812;28;20423;-71
2021/12/22 08:02:03;;;;;;;42.60;20.30;;;-3.60;93.40;;;;;;5025104;28;20207;-71
2021/12/22 08:04:29;;;;;;;43.42;20.38;;;-3.50;93.30;;;;;;5031696;28;20193;-70
2021/12/22 08:06:55;;;;;;;40.83;18.60;;;-3.50;93.20;;;;;;5031743;28;20739;-70
2021/12/22 08:09:25;;;;;;;46.70;19.98;;;-3.40;93.20;;;;;;5031523;28;20706;-71
2021/12/22 08:11:55;;;;;;;50.83;19.67;;;-3.40;93.00;;;;;;5031724;28;20204;-69
2021/12/22 08:14:23;;;;;;;49.35;20.25;;;-3.40;93.00;;;;;;5031089;28;20181;-70
2021/12/22 08:16:50;;;;;;;46.97;20.85;;;-3.30;93.10;;;;;;5031238;28;20177;-70
2021/12/22 08:19:16;;;;;;;40.83;19.95;;;-3.30;92.90;;;;;;5031315;28;20181;-71
2021/12/22 08:21:44;;;;;;;49.60;19.80;;;-3.30;92.90;;;;;;5025702;28;20210;-70
2021/12/22 08:24:10;;;;;;;40.28;20.10;;;-3.30;93.00;;;;;;5030673;28;20192;-70
2021/12/22 08:26:36;;;;;;;48.65;21.02;;;-3.20;92.90;;;;;;5030733;28;20185;-71
2021/12/22 08:29:02;;;;;;;44.00;18.90;;;-3.20;92.90;;;;;;5031615;28;20272;-69
2021/12/22 08:31:27;;;;;;;45.45;18.45;;;-3.20;92.90;;;;;;5031458;28;20463;-70
2021/12/22 08:33:54;;;;;;;45.20;18.70;;;-3.20;92.90;;;;;;5030580;28;20614;-70
2021/12/22 08:39:08;;;;;;;42.45;18.73;;;-3.20;92.90;;;;;;5026027;28;20703;-69
2021/12/22 08:41:36;;;;;;;46.80;18.20;;;-3.10;92.90;;;;;;5028361;28;20212;-70
2021/12/22 08:44:05;;;;;;;45.78;21.83;;;-3.00;93.00;;;;;;5030012;28;20197;-70
2021/12/22 08:46:33;;;;;;;42.58;18.60;;;-3.00;92.80;;;;;;5030115;28;20706;-70
2021/12/22 08:49:00;;;;;;;42.45;18.80;;;-2.90;92.60;;;;;;5030594;28;20722;-71
2021/12/22 08:51:26;;;;;;;46.40;22.00;;;-2.90;92.50;;;;;;5031791;28;20216;-70
2021/12/22 08:53:54;;;;;;;51.67;23.40;;;-2.90;92.40;;;;;;5013353;28;20181;-70
2021/12/22 08:56:21;;;;;;;43.88;20.90;;;-2.90;92.50;;;;;;5031960;28;20187;-71
2021/12/22 08:58:47;;;;;;;45.97;22.52;;;-2.90;92.50;;;;;;5031725;28;20192;-71
2021/12/22 09:01:13;;;;;;;48.88;20.90;;;-2.90;92.50;;;;;;5012733;28;20216;-68
2021/12/22 09:03:39;;;;;;;51.70;22.73;;;-2.70;92.50;;;;;;5030693;28;20279;-71
2021/12/22 09:06:04;;;;;;;45.43;20.90;;;-2.70;92.10;;;;;;5031810;28;20611;-70
2021/12/22 09:08:31;;;;;;;45.13;20.37;;;-2.70;91.70;;;;;;5025304;28;20192;-71
2021/12/22 09:10:56;;;;;;;52.25;22.70;;;-2.70;91.70;;;;;;5030549;28;20221;-70
2021/12/22 09:13:23;;;;;;;48.63;22.87;;;-2.60;91.80;;;;;;5009107;28;20247;-71
2021/12/22 09:15:49;;;;;;;47.97;20.65;;;-2.50;91.70;;;;;;5012612;28;20279;-71
2021/12/22 09:18:16;;;;;;;46.33;20.98;;;-2.50;91.50;;;;;;5030782;28;20471;-71
2021/12/22 09:20:42;;;;;;;45.55;20.05;;;-2.40;91.40;;;;;;5030743;28;20232;-71
2021/12/22 09:23:08;;;;;;;45.25;21.40;;;-2.40;91.20;;;;;;5030339;28;20185;-71
2021/12/22 09:25:34;;;;;;;42.83;20.83;;;-2.40;91.00;;;;;;5030400;28;20192;-70
2021/12/22 09:28:01;;;;;;;53.87;20.27;;;-2.40;90.90;;;;;;5030431;28;20514;-70
2021/12/22 09:30:31;;;;;;;43.28;20.77;;;-2.30;91.00;;;;;;5012895;28;20455;-70
2021/12/22 09:32:57;;;;;;;49.72;20.10;;;-2.30;90.90;;;;;;5022822;28;20205;-69
2021/12/22 09:35:23;;;;;;;51.43;23.00;;;-2.20;90.90;;;;;;5034547;28;20643;-71
2021/12/22 09:37:49;;;;;;;43.33;19.93;;;-2.20;90.90;;;;;;5034623;28;20185;-70
2021/12/22 09:40:14;;;;;;;45.20;19.97;;;-2.10;90.80;;;;;;5034669;28;20228;-70
2021/12/22 09:42:40;;;;;;;45.50;18.37;;;-2.10;90.60;;;;;;5034805;28;20311;-70
2021/12/22 09:45:06;;;;;;;48.50;21.67;;;-2.00;90.40;;;;;;5016668;28;20224;-68
2021/12/22 09:47:51;;;;;;;50.20;19.17;;;-1.90;90.20;;;;;;5027688;28;20280;-70
2021/12/22 09:50:34;;;;;;;39.88;17.77;;;-1.90;90.20;;;;;;5013507;28;20205;-71
2021/12/22 09:53:00;;;;;;;40.17;18.58;;;-1.70;89.90;;;;;;5016451;28;20220;-69
2021/12/22 09:55:26;;;;;;;40.83;18.60;;;-1.60;89.60;;;;;;5034316;28;20387;-69
2021/12/22 09:57:52;;;;;;;41.20;18.37;;;-1.60;89.00;;;;;;5034217;28;20997;-76
2021/12/22 10:00:17;;;;;;;46.13;18.40;;;-1.60;88.60;;;;;;5034353;28;20232;-69
2021/12/22 10:02:43;;;;;;;37.77;17.00;;;-1.50;88.40;;;;;;5032127;28;20204;-69
2021/12/22 10:05:09;;;;;;;34.40;16.50;;;-1.40;87.80;;;;;;5033676;28;20258;-70
2021/12/22 10:07:38;;;;;;;37.90;16.80;;;-1.30;87.30;;;;;;5034548;28;20369;-71
2021/12/22 10:10:11;;;;;;;36.97;15.52;;;-1.20;86.30;;;;;;5034895;28;20255;-69
2021/12/22 10:12:39;;;;;;;45.33;16.30;;;-1.20;85.30;;;;;;5017172;28;20205;-71
2021/12/22 10:15:07;;;;;;;38.55;17.38;;;-1.10;84.70;;;;;;5027380;28;20185;-69
2021/12/22 10:17:37;;;;;;;38.25;16.63;;;-1.10;84.30;;;;;;5034123;28;20181;-70
2021/12/22 10:20:13;;;;;;;31.23;15.82;;;-1.10;84.10;;;;;;5034223;28;20208;-70
2021/12/22 10:22:44;;;;;;;36.75;17.20;;;-1.10;84.40;;;;;;5027544;28;20343;-70
2021/12/22 10:25:20;;;;;;;36.25;15.63;;;-1.00;84.40;;;;;;5030178;28;20181;-71
2021/12/22 10:28:01;;;;;;;35.75;16.55;;;-0.90;84.10;;;;;;5034940;28;20181;-70
2021/12/22 10:30:31;;;;;;;35.08;15.90;;;-0.80;83.60;;;;;;5034784;28;20228;-70
2021/12/22 10:33:10;;;;;;;32.72;14.90;;;-0.80;83.40;;;;;;5026443;28;20208;-71
2021/12/22 10:35:38;;;;;;;41.15;17.48;;;-0.80;83.30;;;;;;5033622;28;20177;-72
2021/12/22 10:38:08;;;;;;;38.08;17.02;;;-0.80;83.30;;;;;;5034210;28;20205;-71
2021/12/22 10:40:37;;;;;;;33.35;15.50;;;-0.80;83.40;;;;;;5029673;28;20628;-70
2021/12/22 10:43:04;;;;;;;34.80;15.75;;;-0.70;82.80;;;;;;5032279;28;20189;-69
2021/12/22 10:45:32;;;;;;;37.90;15.48;;;-0.60;82.50;;;;;;5032484;28;20627;-69
2021/12/22 10:50:45;;;;;;;29.95;15.90;;;-0.30;82.40;;;;;;5024513;28;20216;-70
2021/12/22 10:53:15;;;;;;;32.10;15.18;;;-0.20;81.80;;;;;;5030509;28;20288;-72
2021/12/22 10:55:46;;;;;;;34.90;16.05;;;0.10;80.90;;;;;;5029020;28;20185;-71
2021/12/22 10:58:29;;;;;;;37.97;15.90;;;0.30;79.90;;;;;;5030334;28;20189;-70
2021/12/22 11:01:13;;;;;;;36.75;16.95;;;0.60;78.10;;;;;;5029631;28;20201;-69
2021/12/22 11:03:48;;;;;;;34.60;16.20;;;0.80;77.30;;;;;;5012245;28;20204;-71
2021/12/22 11:06:28;;;;;;;39.38;14.18;;;0.80;76.70;;;;;;5011159;28;20220;-69
2021/12/22 11:09:13;;;;;;;38.28;17.08;;;0.70;76.50;;;;;;5029264;28;20270;-69
2021/12/22 11:11:52;;;;;;;31.80;15.38;;;0.70;76.70;;;;;;5031452;28;20217;-70
2021/12/22 11:14:33;;;;;;;36.20;14.88;;;0.90;76.20;;;;;;5032823;28;20262;-69
2021/12/22 11:17:04;;;;;;;30.13;14.70;;;0.90;75.80;;;;;;5032327;28;20177;-71
2021/12/22 11:19:34;;;;;;;34.25;16.27;;;0.90;75.80;;;;;;5031619;28;20185;-71
2021/12/22 11:22:23;;;;;;;36.10;15.77;;;0.70;75.70;;;;;;5026258;28;20212;-72
2021/12/22 11:24:54;;;;;;;34.67;15.95;;;0.70;75.70;;;;;;5026843;28;20216;-69
2021/12/22 11:27:23;;;;;;;33.63;13.65;;;0.70;76.20;;;;;;5023724;28;20289;-72
2021/12/22 11:29:52;;;;;;;32.60;15.85;;;0.80;76.20;;;;;;5029528;28;20324;-70
2021/12/22 11:32:24;;;;;;;29.85;15.32;;;0.70;75.90;;;;;;5029717;28;20209;-71
2021/12/22 11:34:54;;;;;;;41.45;17.20;;;0.80;75.50;;;;;;5012001;28;20283;-70
2021/12/22 11:37:21;;;;;;;40.50;18.30;;;0.70;75.50;;;;;;5029321;28;20211;-71
2021/12/22 11:39:48;;;;;;;32.70;15.68;;;0.80;75.90;;;;;;5029340;28;20276;-71
2021/12/22 11:42:15;;;;;;;31.42;15.30;;;0.80;75.80;;;;;;5029367;28;20190;-69
2021/12/22 11:44:45;;;;;;;34.78;16.40;;;0.70;75.70;;;;;;5029340;28;20189;-69
2021/12/22 11:47:12;;;;;;;34.13;16.90;;;0.80;75.70;;;;;;5029724;28;20197;-72
2021/12/22 11:50:00;;;;;;;35.05;16.60;;;0.90;75.90;;;;;;5029679;28;20256;-70
2021/12/22 11:52:28;;;;;;;32.45;15.63;;;0.90;76.10;;;;;;5010262;28;20736;-70
2021/12/22 11:55:12;;;;;;;30.63;16.00;;;0.90;76.10;;;;;;5026339;28;20708;-71
2021/12/22 11:57:39;;;;;;;41.15;17.73;;;1.00;74.80;;;;;;5031262;28;20189;-70
2021/12/22 12:00:21;;;;;;;33.97;16.02;;;1.00;74.80;;;;;;5011916;28;20338;-71
2021/12/22 12:02:47;;;;;;;32.47;15.55;;;1.00;74.30;;;;;;5011399;28;20209;-72
2021/12/22 12:05:19;;;;;;;34.47;15.90;;;1.00;73.90;;;;;;5027985;28;20212;-71
2021/12/22 12:07:52;;;;;;;35.35;15.75;;;1.10;74.00;;;;;;5012242;28;20205;-71
2021/12/22 12:10:40;;;;;;;30.75;15.48;;;1.00;73.90;;;;;;5006768;28;20211;-71
2021/12/22 12:13:18;;;;;;;34.30;14.60;;;1.10;74.20;;;;;;5012854;28;20213;-70
2021/12/22 12:22:12;;;;;;;41.80;16.52;;;1.30;73.50;;;;;;5024242;28;20255;-71
2021/12/22 12:24:48;;;;;;;30.02;16.05;;;1.30;73.50;;;;;;5030095;28;20195;-71
2021/12/22 12:27:32;;;;;;;34.90;15.20;;;1.30;74.00;;;;;;5029626;28;20613;-72
2021/12/22 12:30:05;;;;;;;39.85;15.90;;;1.40;74.60;;;;;;5022823;28;20193;-70
2021/12/22 12:32:40;;;;;;;28.88;14.68;;;1.40;74.80;;;;;;5029953;28;20741;-70
2021/12/22 12:35:28;;;;;;;36.00;15.00;;;1.40;74.20;;;;;;5011596;28;20188;-71
2021/12/22 12:38:05;;;;;;;32.90;16.25;;;1.50;74.00;;;;;;5012157;28;20184;-70
2021/12/22 12:40:55;;;;;;;40.80;18.00;;;1.40;73.50;;;;;;5012147;28;20220;-70
2021/12/22 12:43:40;;;;;;;34.28;15.70;;;1.40;73.90;;;;;;5027538;28;20670;-70
2021/12/22 12:46:37;;;;;;;33.90;15.43;;;1.50;74.30;;;;;;5010910;28;20654;-70
2021/12/22 12:49:03;;;;;;;34.03;15.65;;;1.60;73.90;;;;;;5021780;28;20185;-68
2021/12/22 12:51:40;;;;;;;26.27;14.57;;;1.60;73.60;;;;;;5023160;28;20209;-70
2021/12/22 12:54:18;;;;;;;32.13;15.48;;;1.60;73.30;;;;;;5011675;28;20304;-70
2021/12/22 12:56:55;;;;;;;30.52;15.82;;;1.70;72.90;;;;;;5026914;28;20611;-70
2021/12/22 12:59:27;;;;;;;32.88;16.88;;;1.70;72.40;;;;;;5029237;28;20576;-70
2021/12/22 13:01:52;;;;;;;35.55;16.65;;;1.70;73.00;;;;;;5027045;28;20205;-71
2021/12/22 13:04:31;;;;;;;35.20;15.87;;;1.70;73.30;;;;;;5028657;28;20615;-71